sensor_id;sensor_type;location;lat;lon;timestamp;P1;durP1;ratioP1;P2;durP2;ratioP2
27666;SDS011;15074;50.940;5.282;2022-07-29T00:00:42;4.63;;;2.03;;
27666;SDS011;15074;50.940;5.282;2022-07-29T00:03:09;6.40;;;2.57;;
27666;SDS011;15074;50.940;5.282;2022-07-29T00:05:37;6.53;;;2.30;;
27666;SDS011;15074;50.940;5.282;2022-07-29T00:08:03;3.42;;;2.42;;
27666;SDS011;15074;50.940;5.282;2022-07-29T00:10:29;7.68;;;2.75;;
27666;SDS011;15074;50.940;5.282;2022-07-29T00:12:55;5.95;;;2.60;;
27666;SDS011;15074;50.940;5.282;2022-07-29T00:15:20;4.95;;;2.20;;
27666;SDS011;15074;50.940;5.282;2022-07-29T00:17:46;7.88;;;2.85;;
27666;SDS011;15074;50.940;5.282;2022-07-29T00:20:11;2.97;;;1.90;;
27666;SDS011;15074;50.940;5.282;2022-07-29T00:22:38;4.20;;;2.20;;
27666;SDS011;15074;50.940;5.282;2022-07-29T00:25:04;5.47;;;1.98;;
27666;SDS011;15074;50.940;5.282;2022-07-29T00:27:30;6.55;;;2.42;;
27666;SDS011;15074;50.940;5.282;2022-07-29T00:29:56;3.90;;;2.17;;
27666;SDS011;15074;50.940;5.282;2022-07-29T00:32:21;4.55;;;2.33;;
27666;SDS011;15074;50.940;5.282;2022-07-29T00:34:47;6.65;;;2.63;;
27666;SDS011;15074;50.940;5.282;2022-07-29T00:37:31;9.63;;;2.40;;
27666;SDS011;15074;50.940;5.282;2022-07-29T00:39:56;12.52;;;2.47;;
27666;SDS011;15074;50.940;5.282;2022-07-29T00:42:22;5.90;;;2.20;;
27666;SDS011;15074;50.940;5.282;2022-07-29T00:44:48;4.25;;;2.15;;
27666;SDS011;15074;50.940;5.282;2022-07-29T00:47:14;5.15;;;2.17;;
27666;SDS011;15074;50.940;5.282;2022-07-29T00:49:40;5.90;;;2.20;;
27666;SDS011;15074;50.940;5.282;2022-07-29T00:52:07;5.90;;;2.67;;
27666;SDS011;15074;50.940;5.282;2022-07-29T00:54:33;5.78;;;2.00;;
27666;SDS011;15074;50.940;5.282;2022-07-29T00:57:00;3.53;;;2.40;;
27666;SDS011;15074;50.940;5.282;2022-07-29T00:59:26;3.63;;;2.50;;
27666;SDS011;15074;50.940;5.282;2022-07-29T01:01:53;5.90;;;2.10;;
27666;SDS011;15074;50.940;5.282;2022-07-29T01:04:19;3.17;;;2.25;;
27666;SDS011;15074;50.940;5.282;2022-07-29T01:06:46;6.38;;;2.60;;
27666;SDS011;15074;50.940;5.282;2022-07-29T01:09:13;4.78;;;2.35;;
27666;SDS011;15074;50.940;5.282;2022-07-29T01:11:40;3.03;;;2.10;;
27666;SDS011;15074;50.940;5.282;2022-07-29T01:14:07;3.33;;;2.30;;
27666;SDS011;15074;50.940;5.282;2022-07-29T01:16:37;3.88;;;2.20;;
27666;SDS011;15074;50.940;5.282;2022-07-29T01:21:53;5.85;;;2.10;;
27666;SDS011;15074;50.940;5.282;2022-07-29T01:24:48;3.42;;;2.13;;
27666;SDS011;15074;50.940;5.282;2022-07-29T01:27:32;2.95;;;2.15;;
27666;SDS011;15074;50.940;5.282;2022-07-29T01:30:16;4.32;;;2.00;;
27666;SDS011;15074;50.940;5.282;2022-07-29T01:32:42;3.67;;;2.20;;
27666;SDS011;15074;50.940;5.282;2022-07-29T01:38:12;2.67;;;2.17;;
27666;SDS011;15074;50.940;5.282;2022-07-29T01:43:11;3.97;;;2.67;;
27666;SDS011;15074;50.940;5.282;2022-07-29T01:45:47;2.75;;;1.90;;
27666;SDS011;15074;50.940;5.282;2022-07-29T01:51:19;3.92;;;2.58;;
27666;SDS011;15074;50.940;5.282;2022-07-29T01:53:54;2.40;;;2.05;;
27666;SDS011;15074;50.940;5.282;2022-07-29T01:56:26;6.57;;;2.53;;
27666;SDS011;15074;50.940;5.282;2022-07-29T01:58:55;3.35;;;2.17;;
27666;SDS011;15074;50.940;5.282;2022-07-29T02:01:23;2.58;;;2.17;;
27666;SDS011;15074;50.940;5.282;2022-07-29T02:03:51;2.92;;;2.20;;
27666;SDS011;15074;50.940;5.282;2022-07-29T02:06:19;2.50;;;2.15;;
27666;SDS011;15074;50.940;5.282;2022-07-29T02:11:13;11.18;;;2.75;;
27666;SDS011;15074;50.940;5.282;2022-07-29T02:13:39;5.00;;;2.30;;
27666;SDS011;15074;50.940;5.282;2022-07-29T02:16:06;3.47;;;2.20;;
27666;SDS011;15074;50.940;5.282;2022-07-29T02:18:33;4.00;;;2.40;;
27666;SDS011;15074;50.940;5.282;2022-07-29T02:21:02;5.72;;;2.70;;
27666;SDS011;15074;50.940;5.282;2022-07-29T02:23:28;4.15;;;2.50;;
27666;SDS011;15074;50.940;5.282;2022-07-29T02:25:57;4.05;;;2.65;;
27666;SDS011;15074;50.940;5.282;2022-07-29T02:28:27;3.92;;;2.55;;
27666;SDS011;15074;50.940;5.282;2022-07-29T02:30:55;4.78;;;2.50;;
27666;SDS011;15074;50.940;5.282;2022-07-29T02:33:24;3.08;;;2.38;;
27666;SDS011;15074;50.940;5.282;2022-07-29T02:35:51;9.75;;;1.70;;
27666;SDS011;15074;50.940;5.282;2022-07-29T02:38:18;4.10;;;2.30;;
27666;SDS011;15074;50.940;5.282;2022-07-29T02:41:05;3.53;;;2.58;;
27666;SDS011;15074;50.940;5.282;2022-07-29T02:43:36;4.43;;;2.17;;
27666;SDS011;15074;50.940;5.282;2022-07-29T02:46:04;5.68;;;2.58;;
27666;SDS011;15074;50.940;5.282;2022-07-29T02:48:36;2.85;;;2.35;;
27666;SDS011;15074;50.940;5.282;2022-07-29T02:51:13;3.10;;;2.38;;
27666;SDS011;15074;50.940;5.282;2022-07-29T02:53:49;5.43;;;2.97;;
27666;SDS011;15074;50.940;5.282;2022-07-29T02:56:18;5.07;;;2.30;;
27666;SDS011;15074;50.940;5.282;2022-07-29T02:58:59;2.80;;;2.17;;
27666;SDS011;15074;50.940;5.282;2022-07-29T03:01:30;4.00;;;2.40;;
27666;SDS011;15074;50.940;5.282;2022-07-29T03:03:57;5.47;;;2.80;;
27666;SDS011;15074;50.940;5.282;2022-07-29T03:06:28;2.78;;;2.33;;
27666;SDS011;15074;50.940;5.282;2022-07-29T03:08:55;6.10;;;2.20;;
27666;SDS011;15074;50.940;5.282;2022-07-29T03:11:22;5.15;;;2.70;;
27666;SDS011;15074;50.940;5.282;2022-07-29T03:13:48;4.63;;;2.35;;
27666;SDS011;15074;50.940;5.282;2022-07-29T03:16:14;3.35;;;2.25;;
27666;SDS011;15074;50.940;5.282;2022-07-29T03:18:40;3.20;;;2.20;;
27666;SDS011;15074;50.940;5.282;2022-07-29T03:21:06;2.45;;;2.20;;
27666;SDS011;15074;50.940;5.282;2022-07-29T03:23:33;5.30;;;2.70;;
27666;SDS011;15074;50.940;5.282;2022-07-29T03:25:59;5.15;;;2.30;;
27666;SDS011;15074;50.940;5.282;2022-07-29T03:28:25;2.53;;;2.25;;
27666;SDS011;15074;50.940;5.282;2022-07-29T03:30:52;4.37;;;3.17;;
27666;SDS011;15074;50.940;5.282;2022-07-29T03:33:18;3.75;;;2.70;;
27666;SDS011;15074;50.940;5.282;2022-07-29T03:35:54;6.40;;;2.92;;
27666;SDS011;15074;50.940;5.282;2022-07-29T03:38:20;3.25;;;2.22;;
27666;SDS011;15074;50.940;5.282;2022-07-29T03:40:53;3.65;;;2.67;;
27666;SDS011;15074;50.940;5.282;2022-07-29T03:43:21;4.13;;;2.65;;
27666;SDS011;15074;50.940;5.282;2022-07-29T03:45:52;3.50;;;3.10;;
27666;SDS011;15074;50.940;5.282;2022-07-29T03:48:20;4.93;;;2.80;;
27666;SDS011;15074;50.940;5.282;2022-07-29T03:50:49;4.55;;;2.33;;
27666;SDS011;15074;50.940;5.282;2022-07-29T03:53:15;3.55;;;2.53;;
27666;SDS011;15074;50.940;5.282;2022-07-29T03:55:43;4.93;;;2.47;;
27666;SDS011;15074;50.940;5.282;2022-07-29T03:58:12;12.68;;;2.63;;
27666;SDS011;15074;50.940;5.282;2022-07-29T04:00:39;4.53;;;2.90;;
27666;SDS011;15074;50.940;5.282;2022-07-29T04:03:06;4.95;;;3.20;;
27666;SDS011;15074;50.940;5.282;2022-07-29T04:05:33;3.92;;;2.60;;
27666;SDS011;15074;50.940;5.282;2022-07-29T04:07:59;3.53;;;3.08;;
27666;SDS011;15074;50.940;5.282;2022-07-29T04:10:24;8.60;;;2.97;;
27666;SDS011;15074;50.940;5.282;2022-07-29T04:12:50;3.13;;;2.50;;
27666;SDS011;15074;50.940;5.282;2022-07-29T04:15:16;4.97;;;3.03;;
27666;SDS011;15074;50.940;5.282;2022-07-29T04:17:41;3.80;;;2.42;;
27666;SDS011;15074;50.940;5.282;2022-07-29T04:20:08;4.07;;;2.70;;
27666;SDS011;15074;50.940;5.282;2022-07-29T04:22:34;3.40;;;2.78;;
27666;SDS011;15074;50.940;5.282;2022-07-29T04:24:59;6.07;;;3.00;;
27666;SDS011;15074;50.940;5.282;2022-07-29T04:27:25;4.28;;;2.92;;
27666;SDS011;15074;50.940;5.282;2022-07-29T04:29:51;5.60;;;3.28;;
27666;SDS011;15074;50.940;5.282;2022-07-29T04:32:16;7.13;;;3.38;;
27666;SDS011;15074;50.940;5.282;2022-07-29T04:34:42;4.90;;;3.50;;
27666;SDS011;15074;50.940;5.282;2022-07-29T04:37:07;5.05;;;3.47;;
27666;SDS011;15074;50.940;5.282;2022-07-29T04:39:33;3.85;;;3.10;;
27666;SDS011;15074;50.940;5.282;2022-07-29T04:41:59;4.95;;;3.10;;
27666;SDS011;15074;50.940;5.282;2022-07-29T04:44:25;6.90;;;3.42;;
27666;SDS011;15074;50.940;5.282;2022-07-29T04:46:51;8.25;;;3.85;;
27666;SDS011;15074;50.940;5.282;2022-07-29T04:49:17;6.13;;;3.83;;
27666;SDS011;15074;50.940;5.282;2022-07-29T04:51:42;3.78;;;3.38;;
27666;SDS011;15074;50.940;5.282;2022-07-29T04:54:08;3.63;;;3.28;;
27666;SDS011;15074;50.940;5.282;2022-07-29T04:56:34;6.97;;;3.67;;
27666;SDS011;15074;50.940;5.282;2022-07-29T04:58:59;4.15;;;3.60;;
27666;SDS011;15074;50.940;5.282;2022-07-29T05:01:25;4.47;;;3.88;;
27666;SDS011;15074;50.940;5.282;2022-07-29T05:03:50;6.60;;;4.20;;
27666;SDS011;15074;50.940;5.282;2022-07-29T05:06:16;4.93;;;3.72;;
27666;SDS011;15074;50.940;5.282;2022-07-29T05:08:41;4.15;;;3.72;;
27666;SDS011;15074;50.940;5.282;2022-07-29T05:11:07;4.68;;;4.15;;
27666;SDS011;15074;50.940;5.282;2022-07-29T05:13:33;4.93;;;4.05;;
27666;SDS011;15074;50.940;5.282;2022-07-29T05:15:58;5.13;;;4.53;;
27666;SDS011;15074;50.940;5.282;2022-07-29T05:18:25;4.20;;;3.60;;
27666;SDS011;15074;50.940;5.282;2022-07-29T05:20:50;4.85;;;3.88;;
27666;SDS011;15074;50.940;5.282;2022-07-29T05:23:16;5.80;;;4.80;;
27666;SDS011;15074;50.940;5.282;2022-07-29T05:25:42;5.07;;;3.95;;
27666;SDS011;15074;50.940;5.282;2022-07-29T05:28:08;5.05;;;4.10;;
27666;SDS011;15074;50.940;5.282;2022-07-29T05:30:35;5.20;;;4.15;;
27666;SDS011;15074;50.940;5.282;2022-07-29T05:33:01;7.57;;;4.40;;
27666;SDS011;15074;50.940;5.282;2022-07-29T05:35:26;4.65;;;3.95;;
27666;SDS011;15074;50.940;5.282;2022-07-29T05:37:52;3.10;;;2.75;;
27666;SDS011;15074;50.940;5.282;2022-07-29T05:40:17;4.97;;;3.47;;
27666;SDS011;15074;50.940;5.282;2022-07-29T05:42:43;4.82;;;4.30;;
27666;SDS011;15074;50.940;5.282;2022-07-29T05:45:09;3.85;;;3.28;;
27666;SDS011;15074;50.940;5.282;2022-07-29T05:47:35;4.53;;;3.17;;
27666;SDS011;15074;50.940;5.282;2022-07-29T05:50:00;4.68;;;2.83;;
27666;SDS011;15074;50.940;5.282;2022-07-29T05:52:26;5.00;;;3.03;;
27666;SDS011;15074;50.940;5.282;2022-07-29T05:54:52;4.72;;;3.40;;
27666;SDS011;15074;50.940;5.282;2022-07-29T05:57:18;5.50;;;3.42;;
27666;SDS011;15074;50.940;5.282;2022-07-29T05:59:45;4.78;;;2.95;;
27666;SDS011;15074;50.940;5.282;2022-07-29T06:02:11;4.28;;;3.47;;
27666;SDS011;15074;50.940;5.282;2022-07-29T06:04:36;5.35;;;3.42;;
27666;SDS011;15074;50.940;5.282;2022-07-29T06:07:02;5.03;;;3.30;;
27666;SDS011;15074;50.940;5.282;2022-07-29T06:09:28;4.22;;;3.13;;
27666;SDS011;15074;50.940;5.282;2022-07-29T06:11:54;4.53;;;3.65;;
27666;SDS011;15074;50.940;5.282;2022-07-29T06:14:19;3.42;;;3.13;;
27666;SDS011;15074;50.940;5.282;2022-07-29T06:16:45;7.55;;;3.80;;
27666;SDS011;15074;50.940;5.282;2022-07-29T06:19:11;4.57;;;3.67;;
27666;SDS011;15074;50.940;5.282;2022-07-29T06:21:40;5.50;;;3.60;;
27666;SDS011;15074;50.940;5.282;2022-07-29T06:24:10;4.72;;;4.15;;
27666;SDS011;15074;50.940;5.282;2022-07-29T06:26:37;4.40;;;4.00;;
27666;SDS011;15074;50.940;5.282;2022-07-29T06:29:03;4.45;;;3.90;;
27666;SDS011;15074;50.940;5.282;2022-07-29T06:31:29;6.28;;;3.78;;
27666;SDS011;15074;50.940;5.282;2022-07-29T06:33:55;4.53;;;3.92;;
27666;SDS011;15074;50.940;5.282;2022-07-29T06:36:20;4.28;;;3.88;;
27666;SDS011;15074;50.940;5.282;2022-07-29T06:38:46;4.50;;;4.10;;
27666;SDS011;15074;50.940;5.282;2022-07-29T06:41:12;5.55;;;3.72;;
27666;SDS011;15074;50.940;5.282;2022-07-29T06:43:41;4.68;;;3.95;;
27666;SDS011;15074;50.940;5.282;2022-07-29T06:46:08;5.30;;;3.80;;
27666;SDS011;15074;50.940;5.282;2022-07-29T06:48:36;3.30;;;3.00;;
27666;SDS011;15074;50.940;5.282;2022-07-29T06:51:03;4.25;;;3.40;;
27666;SDS011;15074;50.940;5.282;2022-07-29T06:53:30;3.07;;;2.73;;
27666;SDS011;15074;50.940;5.282;2022-07-29T06:55:56;4.57;;;3.40;;
27666;SDS011;15074;50.940;5.282;2022-07-29T06:58:23;4.22;;;3.45;;
27666;SDS011;15074;50.940;5.282;2022-07-29T07:00:49;3.78;;;3.35;;
27666;SDS011;15074;50.940;5.282;2022-07-29T07:03:15;3.75;;;3.00;;
27666;SDS011;15074;50.940;5.282;2022-07-29T07:05:41;3.15;;;2.72;;
27666;SDS011;15074;50.940;5.282;2022-07-29T07:08:07;3.55;;;3.00;;
27666;SDS011;15074;50.940;5.282;2022-07-29T07:10:33;3.35;;;2.75;;
27666;SDS011;15074;50.940;5.282;2022-07-29T07:13:00;5.05;;;2.83;;
27666;SDS011;15074;50.940;5.282;2022-07-29T07:15:26;4.00;;;2.80;;
27666;SDS011;15074;50.940;5.282;2022-07-29T07:17:52;5.43;;;2.88;;
27666;SDS011;15074;50.940;5.282;2022-07-29T07:20:18;3.63;;;2.67;;
27666;SDS011;15074;50.940;5.282;2022-07-29T07:22:44;3.83;;;2.70;;
27666;SDS011;15074;50.940;5.282;2022-07-29T07:25:09;2.60;;;2.25;;
27666;SDS011;15074;50.940;5.282;2022-07-29T07:27:36;2.83;;;2.28;;
27666;SDS011;15074;50.940;5.282;2022-07-29T07:30:02;2.47;;;2.28;;
27666;SDS011;15074;50.940;5.282;2022-07-29T07:32:30;3.03;;;2.55;;
27666;SDS011;15074;50.940;5.282;2022-07-29T07:34:56;4.55;;;2.70;;
27666;SDS011;15074;50.940;5.282;2022-07-29T07:37:22;2.67;;;2.30;;
27666;SDS011;15074;50.940;5.282;2022-07-29T07:39:49;4.32;;;2.45;;
27666;SDS011;15074;50.940;5.282;2022-07-29T07:42:16;4.03;;;2.23;;
27666;SDS011;15074;50.940;5.282;2022-07-29T07:44:42;4.32;;;2.70;;
27666;SDS011;15074;50.940;5.282;2022-07-29T07:47:07;2.97;;;2.67;;
27666;SDS011;15074;50.940;5.282;2022-07-29T07:49:33;3.20;;;2.53;;
27666;SDS011;15074;50.940;5.282;2022-07-29T07:51:59;2.83;;;2.17;;
27666;SDS011;15074;50.940;5.282;2022-07-29T07:54:24;2.30;;;2.10;;
27666;SDS011;15074;50.940;5.282;2022-07-29T07:56:50;3.05;;;2.00;;
27666;SDS011;15074;50.940;5.282;2022-07-29T07:59:16;8.13;;;2.42;;
27666;SDS011;15074;50.940;5.282;2022-07-29T08:01:42;3.90;;;2.17;;
27666;SDS011;15074;50.940;5.282;2022-07-29T08:04:07;3.20;;;2.05;;
27666;SDS011;15074;50.940;5.282;2022-07-29T08:06:34;3.72;;;1.90;;
27666;SDS011;15074;50.940;5.282;2022-07-29T08:09:00;4.85;;;2.25;;
27666;SDS011;15074;50.940;5.282;2022-07-29T08:11:28;2.75;;;2.05;;
27666;SDS011;15074;50.940;5.282;2022-07-29T08:13:53;2.08;;;1.70;;
27666;SDS011;15074;50.940;5.282;2022-07-29T08:16:19;4.80;;;1.95;;
27666;SDS011;15074;50.940;5.282;2022-07-29T08:18:45;4.70;;;2.60;;
27666;SDS011;15074;50.940;5.282;2022-07-29T08:21:12;3.13;;;1.80;;
27666;SDS011;15074;50.940;5.282;2022-07-29T08:23:39;3.88;;;2.00;;
27666;SDS011;15074;50.940;5.282;2022-07-29T08:26:10;2.22;;;1.73;;
27666;SDS011;15074;50.940;5.282;2022-07-29T08:28:39;3.45;;;1.85;;
27666;SDS011;15074;50.940;5.282;2022-07-29T08:31:09;2.38;;;2.15;;
27666;SDS011;15074;50.940;5.282;2022-07-29T08:33:35;2.83;;;2.10;;
27666;SDS011;15074;50.940;5.282;2022-07-29T08:36:00;2.05;;;1.52;;
27666;SDS011;15074;50.940;5.282;2022-07-29T08:38:26;3.10;;;1.92;;
27666;SDS011;15074;50.940;5.282;2022-07-29T08:40:52;4.53;;;2.08;;
27666;SDS011;15074;50.940;5.282;2022-07-29T08:43:19;2.17;;;1.77;;
27666;SDS011;15074;50.940;5.282;2022-07-29T08:45:45;2.42;;;1.70;;
27666;SDS011;15074;50.940;5.282;2022-07-29T08:48:12;6.57;;;1.77;;
27666;SDS011;15074;50.940;5.282;2022-07-29T08:50:39;6.22;;;2.58;;
27666;SDS011;15074;50.940;5.282;2022-07-29T08:55:36;2.63;;;2.38;;
27666;SDS011;15074;50.940;5.282;2022-07-29T08:58:11;3.22;;;2.08;;
27666;SDS011;15074;50.940;5.282;2022-07-29T09:00:41;2.55;;;2.00;;
27666;SDS011;15074;50.940;5.282;2022-07-29T09:03:15;3.83;;;2.08;;
27666;SDS011;15074;50.940;5.282;2022-07-29T09:05:44;4.35;;;1.92;;
27666;SDS011;15074;50.940;5.282;2022-07-29T09:08:11;2.53;;;2.00;;
27666;SDS011;15074;50.940;5.282;2022-07-29T09:10:38;2.85;;;1.73;;
27666;SDS011;15074;50.940;5.282;2022-07-29T09:13:04;2.83;;;2.08;;
27666;SDS011;15074;50.940;5.282;2022-07-29T09:15:30;3.47;;;1.50;;
27666;SDS011;15074;50.940;5.282;2022-07-29T09:17:56;2.50;;;1.90;;
27666;SDS011;15074;50.940;5.282;2022-07-29T09:20:23;2.53;;;1.80;;
27666;SDS011;15074;50.940;5.282;2022-07-29T09:22:49;2.17;;;1.77;;
27666;SDS011;15074;50.940;5.282;2022-07-29T09:25:34;2.72;;;2.20;;
27666;SDS011;15074;50.940;5.282;2022-07-29T09:28:06;2.92;;;1.70;;
27666;SDS011;15074;50.940;5.282;2022-07-29T09:30:33;2.63;;;1.58;;
27666;SDS011;15074;50.940;5.282;2022-07-29T09:33:00;1.33;;;1.15;;
27666;SDS011;15074;50.940;5.282;2022-07-29T09:35:27;2.72;;;1.70;;
27666;SDS011;15074;50.940;5.282;2022-07-29T09:37:54;1.60;;;1.40;;
27666;SDS011;15074;50.940;5.282;2022-07-29T09:40:21;3.70;;;1.80;;
27666;SDS011;15074;50.940;5.282;2022-07-29T09:42:49;1.83;;;1.20;;
27666;SDS011;15074;50.940;5.282;2022-07-29T09:47:57;2.03;;;1.40;;
27666;SDS011;15074;50.940;5.282;2022-07-29T09:50:38;2.25;;;1.30;;
27666;SDS011;15074;50.940;5.282;2022-07-29T09:53:05;3.08;;;1.30;;
27666;SDS011;15074;50.940;5.282;2022-07-29T09:55:30;1.73;;;1.30;;
27666;SDS011;15074;50.940;5.282;2022-07-29T10:00:45;2.20;;;1.30;;
27666;SDS011;15074;50.940;5.282;2022-07-29T10:03:11;2.03;;;1.45;;
27666;SDS011;15074;50.940;5.282;2022-07-29T10:05:38;1.42;;;1.02;;
27666;SDS011;15074;50.940;5.282;2022-07-29T10:08:05;2.40;;;1.20;;
27666;SDS011;15074;50.940;5.282;2022-07-29T10:10:31;3.17;;;1.50;;
27666;SDS011;15074;50.940;5.282;2022-07-29T10:13:03;1.63;;;1.42;;
27666;SDS011;15074;50.940;5.282;2022-07-29T10:15:31;4.30;;;1.25;;
27666;SDS011;15074;50.940;5.282;2022-07-29T10:18:03;1.85;;;1.17;;
27666;SDS011;15074;50.940;5.282;2022-07-29T10:20:29;1.70;;;1.10;;
27666;SDS011;15074;50.940;5.282;2022-07-29T10:22:55;2.50;;;1.40;;
27666;SDS011;15074;50.940;5.282;2022-07-29T10:25:22;2.70;;;1.30;;
27666;SDS011;15074;50.940;5.282;2022-07-29T10:27:49;2.83;;;1.55;;
27666;SDS011;15074;50.940;5.282;2022-07-29T10:30:18;2.97;;;1.20;;
27666;SDS011;15074;50.940;5.282;2022-07-29T10:38:44;1.95;;;1.27;;
27666;SDS011;15074;50.940;5.282;2022-07-29T10:46:36;3.38;;;1.50;;
27666;SDS011;15074;50.940;5.282;2022-07-29T10:49:13;1.80;;;1.35;;
27666;SDS011;15074;50.940;5.282;2022-07-29T10:54:19;2.42;;;1.48;;
27666;SDS011;15074;50.940;5.282;2022-07-29T10:59:41;1.88;;;1.77;;
27666;SDS011;15074;50.940;5.282;2022-07-29T11:04:59;3.15;;;1.40;;
27666;SDS011;15074;50.940;5.282;2022-07-29T11:07:29;2.78;;;1.40;;
27666;SDS011;15074;50.940;5.282;2022-07-29T11:15:12;4.88;;;1.30;;
27666;SDS011;15074;50.940;5.282;2022-07-29T11:26:30;3.03;;;1.38;;
27666;SDS011;15074;50.940;5.282;2022-07-29T11:31:16;2.43;;;1.70;;
27666;SDS011;15074;50.940;5.282;2022-07-29T11:33:58;2.15;;;1.40;;
27666;SDS011;15074;50.940;5.282;2022-07-29T11:39:34;3.15;;;1.30;;
27666;SDS011;15074;50.940;5.282;2022-07-29T11:47:36;2.63;;;1.58;;
27666;SDS011;15074;50.940;5.282;2022-07-29T11:50:03;3.00;;;1.40;;
27666;SDS011;15074;50.940;5.282;2022-07-29T11:52:37;2.03;;;1.38;;
27666;SDS011;15074;50.940;5.282;2022-07-29T11:55:08;2.45;;;1.40;;
27666;SDS011;15074;50.940;5.282;2022-07-29T11:57:37;2.67;;;1.40;;
27666;SDS011;15074;50.940;5.282;2022-07-29T12:00:11;1.20;;;1.00;;
27666;SDS011;15074;50.940;5.282;2022-07-29T12:02:40;1.73;;;1.20;;
27666;SDS011;15074;50.940;5.282;2022-07-29T12:05:07;2.58;;;1.50;;
27666;SDS011;15074;50.940;5.282;2022-07-29T12:07:35;1.98;;;1.20;;
27666;SDS011;15074;50.940;5.282;2022-07-29T12:10:02;1.13;;;0.85;;
27666;SDS011;15074;50.940;5.282;2022-07-29T12:12:28;1.33;;;0.80;;
27666;SDS011;15074;50.940;5.282;2022-07-29T12:14:54;1.80;;;0.80;;
27666;SDS011;15074;50.940;5.282;2022-07-29T12:17:33;1.63;;;0.80;;
27666;SDS011;15074;50.940;5.282;2022-07-29T12:20:03;0.90;;;0.80;;
27666;SDS011;15074;50.940;5.282;2022-07-29T12:22:33;2.13;;;0.93;;
27666;SDS011;15074;50.940;5.282;2022-07-29T12:25:09;0.95;;;0.85;;
27666;SDS011;15074;50.940;5.282;2022-07-29T12:27:36;1.10;;;1.00;;
27666;SDS011;15074;50.940;5.282;2022-07-29T12:32:37;2.08;;;1.00;;
27666;SDS011;15074;50.940;5.282;2022-07-29T12:35:10;1.23;;;0.90;;
27666;SDS011;15074;50.940;5.282;2022-07-29T12:37:41;1.20;;;0.90;;
27666;SDS011;15074;50.940;5.282;2022-07-29T12:40:08;2.72;;;0.98;;
27666;SDS011;15074;50.940;5.282;2022-07-29T12:42:36;6.03;;;1.35;;
27666;SDS011;15074;50.940;5.282;2022-07-29T12:45:02;1.85;;;0.95;;
27666;SDS011;15074;50.940;5.282;2022-07-29T12:47:29;1.23;;;0.90;;
27666;SDS011;15074;50.940;5.282;2022-07-29T12:50:12;1.67;;;0.90;;
27666;SDS011;15074;50.940;5.282;2022-07-29T12:52:43;4.72;;;1.00;;
27666;SDS011;15074;50.940;5.282;2022-07-29T12:55:12;1.67;;;1.10;;
27666;SDS011;15074;50.940;5.282;2022-07-29T12:57:44;1.75;;;1.02;;
27666;SDS011;15074;50.940;5.282;2022-07-29T13:00:15;2.05;;;1.17;;
27666;SDS011;15074;50.940;5.282;2022-07-29T13:02:41;1.05;;;0.93;;
27666;SDS011;15074;50.940;5.282;2022-07-29T13:05:08;1.38;;;1.00;;
27666;SDS011;15074;50.940;5.282;2022-07-29T13:07:36;1.40;;;1.10;;
27666;SDS011;15074;50.940;5.282;2022-07-29T13:10:12;1.43;;;1.00;;
27666;SDS011;15074;50.940;5.282;2022-07-29T13:13:04;1.45;;;1.00;;
27666;SDS011;15074;50.940;5.282;2022-07-29T13:15:38;1.55;;;0.90;;
27666;SDS011;15074;50.940;5.282;2022-07-29T13:18:25;1.65;;;0.82;;
27666;SDS011;15074;50.940;5.282;2022-07-29T13:21:12;1.15;;;0.90;;
27666;SDS011;15074;50.940;5.282;2022-07-29T13:23:38;1.63;;;0.93;;
27666;SDS011;15074;50.940;5.282;2022-07-29T13:26:05;2.83;;;1.00;;
27666;SDS011;15074;50.940;5.282;2022-07-29T13:28:34;1.15;;;0.90;;
27666;SDS011;15074;50.940;5.282;2022-07-29T13:31:00;1.15;;;0.80;;
27666;SDS011;15074;50.940;5.282;2022-07-29T13:33:26;4.22;;;0.90;;
27666;SDS011;15074;50.940;5.282;2022-07-29T13:35:52;1.47;;;0.70;;
27666;SDS011;15074;50.940;5.282;2022-07-29T13:38:17;1.73;;;0.83;;
27666;SDS011;15074;50.940;5.282;2022-07-29T13:40:43;1.57;;;0.90;;
27666;SDS011;15074;50.940;5.282;2022-07-29T13:43:09;1.80;;;0.70;;
27666;SDS011;15074;50.940;5.282;2022-07-29T13:45:35;1.30;;;0.77;;
27666;SDS011;15074;50.940;5.282;2022-07-29T13:48:01;2.20;;;0.80;;
27666;SDS011;15074;50.940;5.282;2022-07-29T13:50:27;3.93;;;0.70;;
27666;SDS011;15074;50.940;5.282;2022-07-29T13:52:53;0.97;;;0.77;;
27666;SDS011;15074;50.940;5.282;2022-07-29T13:55:18;3.27;;;1.00;;
27666;SDS011;15074;50.940;5.282;2022-07-29T13:57:44;1.23;;;0.80;;
27666;SDS011;15074;50.940;5.282;2022-07-29T14:00:10;1.20;;;0.68;;
27666;SDS011;15074;50.940;5.282;2022-07-29T14:02:37;4.43;;;1.10;;
27666;SDS011;15074;50.940;5.282;2022-07-29T14:05:03;1.87;;;1.03;;
27666;SDS011;15074;50.940;5.282;2022-07-29T14:07:30;1.85;;;1.00;;
27666;SDS011;15074;50.940;5.282;2022-07-29T14:09:55;2.50;;;0.88;;
27666;SDS011;15074;50.940;5.282;2022-07-29T14:12:21;1.50;;;1.10;;
27666;SDS011;15074;50.940;5.282;2022-07-29T14:14:47;1.70;;;0.80;;
27666;SDS011;15074;50.940;5.282;2022-07-29T14:17:14;3.55;;;0.93;;
27666;SDS011;15074;50.940;5.282;2022-07-29T14:19:40;3.17;;;1.13;;
27666;SDS011;15074;50.940;5.282;2022-07-29T14:22:06;2.92;;;0.90;;
27666;SDS011;15074;50.940;5.282;2022-07-29T14:24:33;3.22;;;1.10;;
27666;SDS011;15074;50.940;5.282;2022-07-29T14:27:00;2.45;;;0.90;;
27666;SDS011;15074;50.940;5.282;2022-07-29T14:29:25;1.50;;;1.20;;
27666;SDS011;15074;50.940;5.282;2022-07-29T14:31:51;2.83;;;1.00;;
27666;SDS011;15074;50.940;5.282;2022-07-29T14:34:17;1.33;;;1.13;;
27666;SDS011;15074;50.940;5.282;2022-07-29T14:36:47;6.28;;;1.15;;
27666;SDS011;15074;50.940;5.282;2022-07-29T14:39:12;2.75;;;1.15;;
27666;SDS011;15074;50.940;5.282;2022-07-29T14:41:40;1.75;;;0.98;;
27666;SDS011;15074;50.940;5.282;2022-07-29T14:44:06;1.75;;;1.10;;
27666;SDS011;15074;50.940;5.282;2022-07-29T14:46:31;3.63;;;1.02;;
27666;SDS011;15074;50.940;5.282;2022-07-29T14:48:57;1.70;;;0.93;;
27666;SDS011;15074;50.940;5.282;2022-07-29T14:51:23;2.20;;;1.00;;
27666;SDS011;15074;50.940;5.282;2022-07-29T14:53:48;2.90;;;1.42;;
27666;SDS011;15074;50.940;5.282;2022-07-29T14:56:15;4.32;;;1.25;;
27666;SDS011;15074;50.940;5.282;2022-07-29T14:58:40;1.65;;;1.13;;
27666;SDS011;15074;50.940;5.282;2022-07-29T15:01:06;4.95;;;1.00;;
27666;SDS011;15074;50.940;5.282;2022-07-29T15:03:31;1.75;;;1.00;;
27666;SDS011;15074;50.940;5.282;2022-07-29T15:05:57;1.98;;;1.02;;
27666;SDS011;15074;50.940;5.282;2022-07-29T15:08:23;3.08;;;1.30;;
27666;SDS011;15074;50.940;5.282;2022-07-29T15:10:50;3.10;;;1.20;;
27666;SDS011;15074;50.940;5.282;2022-07-29T15:13:16;3.50;;;0.93;;
27666;SDS011;15074;50.940;5.282;2022-07-29T15:15:41;1.70;;;1.10;;
27666;SDS011;15074;50.940;5.282;2022-07-29T15:18:07;4.05;;;1.30;;
27666;SDS011;15074;50.940;5.282;2022-07-29T15:20:34;2.53;;;1.20;;
27666;SDS011;15074;50.940;5.282;2022-07-29T15:22:59;3.60;;;1.10;;
27666;SDS011;15074;50.940;5.282;2022-07-29T15:25:25;3.40;;;1.30;;
27666;SDS011;15074;50.940;5.282;2022-07-29T15:27:51;1.45;;;1.00;;
27666;SDS011;15074;50.940;5.282;2022-07-29T15:30:17;8.18;;;1.90;;
27666;SDS011;15074;50.940;5.282;2022-07-29T15:32:43;2.65;;;1.27;;
27666;SDS011;15074;50.940;5.282;2022-07-29T15:35:09;2.22;;;1.10;;
27666;SDS011;15074;50.940;5.282;2022-07-29T15:37:35;2.60;;;1.17;;
27666;SDS011;15074;50.940;5.282;2022-07-29T15:40:02;1.77;;;1.02;;
27666;SDS011;15074;50.940;5.282;2022-07-29T15:42:29;2.53;;;1.15;;
27666;SDS011;15074;50.940;5.282;2022-07-29T15:44:55;2.40;;;1.20;;
27666;SDS011;15074;50.940;5.282;2022-07-29T15:47:20;1.90;;;1.08;;
27666;SDS011;15074;50.940;5.282;2022-07-29T15:49:46;2.70;;;1.13;;
27666;SDS011;15074;50.940;5.282;2022-07-29T15:52:12;4.15;;;1.30;;
27666;SDS011;15074;50.940;5.282;2022-07-29T15:54:38;3.15;;;1.40;;
27666;SDS011;15074;50.940;5.282;2022-07-29T15:57:07;4.35;;;1.75;;
27666;SDS011;15074;50.940;5.282;2022-07-29T15:59:33;3.25;;;1.40;;